createdAt,value
2022-10-18T00:00:38.404Z,88.78
2022-10-18T00:03:35.016Z,88.86
2022-10-18T00:06:12.361Z,88.85
2022-10-18T00:08:48.264Z,88.83
2022-10-18T00:11:24.073Z,88.87
2022-10-18T00:14:01.889Z,88.82
2022-10-18T00:16:37.773Z,88.74
2022-10-18T00:19:13.850Z,88.76
2022-10-18T00:21:52.558Z,88.82
2022-10-18T00:24:28.486Z,88.90
2022-10-18T00:27:04.370Z,88.86
2022-10-18T00:29:40.225Z,88.89
2022-10-18T00:32:16.079Z,88.95
2022-10-18T00:34:52.300Z,88.99
2022-10-18T00:37:28.826Z,89.05
2022-10-18T00:40:05.537Z,89.10
2022-10-18T00:42:42.259Z,89.25
2022-10-18T00:45:29.313Z,89.37
2022-10-18T00:48:07.898Z,89.47
2022-10-18T00:50:45.607Z,89.53
2022-10-18T00:53:25.329Z,89.55
2022-10-18T00:56:01.776Z,89.57
2022-10-18T00:58:38.858Z,89.50
2022-10-18T01:01:14.673Z,89.42
2022-10-18T01:03:52.129Z,89.38
2022-10-18T01:06:30.159Z,89.37
2022-10-18T01:09:26.935Z,89.35
2022-10-18T01:12:29.817Z,89.36
2022-10-18T01:15:17.449Z,89.36
2022-10-18T01:18:09.558Z,89.40
2022-10-18T01:21:26.235Z,89.45
2022-10-18T01:24:40.886Z,89.45
2022-10-18T01:27:48.397Z,89.50
2022-10-18T01:30:58.238Z,89.65
2022-10-18T01:33:43.007Z,89.92
2022-10-18T01:36:28.329Z,89.97
2022-10-18T01:39:12.161Z,89.99
2022-10-18T01:41:50.954Z,90.00
2022-10-18T01:44:33.060Z,90.03
2022-10-18T01:47:14.469Z,90.04
2022-10-18T01:49:50.227Z,90.06
2022-10-18T01:52:26.078Z,90.06
2022-10-18T01:55:04.529Z,90.08
2022-10-18T01:57:47.449Z,90.11
2022-10-18T02:00:30.261Z,90.17
2022-10-18T02:03:15.853Z,90.18
2022-10-18T02:06:00.244Z,90.23
2022-10-18T02:08:44.813Z,90.23
2022-10-18T02:11:21.966Z,90.24
2022-10-18T02:14:05.441Z,90.26
2022-10-18T02:16:49.211Z,90.29
2022-10-18T02:19:32.113Z,90.30
2022-10-18T02:22:11.801Z,90.37
2022-10-18T02:24:52.448Z,90.44
2022-10-18T02:27:28.524Z,90.50
2022-10-18T02:30:04.837Z,90.52
2022-10-18T02:32:50.586Z,90.53
2022-10-18T02:35:34.172Z,90.55
2022-10-18T02:38:13.423Z,90.53
2022-10-18T02:40:49.186Z,90.53
2022-10-18T02:43:28.350Z,90.51
2022-10-18T02:46:04.131Z,90.45
2022-10-18T02:48:39.979Z,90.45
2022-10-18T02:51:15.771Z,90.44
2022-10-18T02:53:51.932Z,90.41
2022-10-18T02:56:27.798Z,90.39
2022-10-18T02:59:05.759Z,90.37
2022-10-18T03:01:41.588Z,90.34
2022-10-18T03:04:17.541Z,90.35
2022-10-18T03:06:53.454Z,90.34
2022-10-18T03:09:29.605Z,90.31
2022-10-18T03:12:05.559Z,90.29
2022-10-18T03:14:41.365Z,90.29
2022-10-18T03:17:17.297Z,90.28
2022-10-18T03:19:53.404Z,90.25
2022-10-18T03:25:11.518Z,90.29
2022-10-18T03:27:47.332Z,90.31
2022-10-18T03:30:23.370Z,90.29
2022-10-18T03:32:59.652Z,90.29
2022-10-18T03:35:35.663Z,90.24
2022-10-18T03:38:11.402Z,90.23
2022-10-18T03:40:47.241Z,90.24
2022-10-18T03:43:22.969Z,90.21
2022-10-18T03:45:59.134Z,90.22
2022-10-18T03:48:35.177Z,90.16
2022-10-18T03:51:11.378Z,90.11
2022-10-18T03:53:47.239Z,90.08
2022-10-18T03:56:22.996Z,90.12
2022-10-18T03:58:58.760Z,90.12
2022-10-18T04:01:34.711Z,90.12
2022-10-18T04:04:10.627Z,90.15
2022-10-18T04:06:46.441Z,90.14
2022-10-18T04:09:22.304Z,90.13
2022-10-18T04:11:58.089Z,90.11
2022-10-18T04:14:33.967Z,90.15
2022-10-18T04:17:09.687Z,90.14
2022-10-18T04:19:45.687Z,90.15
2022-10-18T04:22:21.667Z,90.19
2022-10-18T04:24:57.895Z,90.28
2022-10-18T04:27:34.174Z,90.38
2022-10-18T04:30:13.130Z,90.49
2022-10-18T04:32:48.878Z,90.61
2022-10-18T04:35:26.050Z,90.71
2022-10-18T04:38:01.838Z,90.79
2022-10-18T04:40:37.928Z,90.88
2022-10-18T04:43:13.811Z,90.95
2022-10-18T04:45:51.180Z,90.99
2022-10-18T04:48:27.319Z,91.12
2022-10-18T04:51:03.082Z,91.22
2022-10-18T04:53:39.012Z,91.05
2022-10-18T04:56:15.111Z,90.98
2022-10-18T04:58:51.061Z,91.08
2022-10-18T05:01:26.892Z,90.99
2022-10-18T05:04:02.767Z,90.87
2022-10-18T05:06:38.489Z,90.79
2022-10-18T05:09:15.355Z,90.73
2022-10-18T05:11:51.435Z,90.69
2022-10-18T05:14:27.366Z,90.82
2022-10-18T05:17:03.173Z,90.89
2022-10-18T05:19:39.120Z,90.80
2022-10-18T05:22:14.997Z,90.69
2022-10-18T05:24:50.749Z,90.78
2022-10-18T05:27:26.546Z,90.74
2022-10-18T05:30:05.401Z,90.66
2022-10-18T05:32:41.765Z,90.57
2022-10-18T05:35:17.558Z,90.52
2022-10-18T05:37:53.278Z,90.47
2022-10-18T05:40:29.033Z,90.47
2022-10-18T05:43:04.983Z,90.47
2022-10-18T05:45:40.728Z,90.40
2022-10-18T05:48:16.593Z,90.29
2022-10-18T05:50:52.470Z,90.14
2022-10-18T05:53:37.464Z,90.05
2022-10-18T05:56:14.860Z,90.05
2022-10-18T05:58:54.215Z,90.04
2022-10-18T06:01:29.914Z,90.04
2022-10-18T06:04:05.912Z,90.07
2022-10-18T06:06:42.632Z,90.13
2022-10-18T06:09:18.510Z,90.14
2022-10-18T06:11:54.523Z,90.01
2022-10-18T06:14:30.686Z,89.90
2022-10-18T06:17:06.817Z,89.90
2022-10-18T06:19:44.358Z,89.81
2022-10-18T06:22:20.205Z,89.68
2022-10-18T06:24:57.230Z,89.54
2022-10-18T06:27:34.963Z,89.46
2022-10-18T06:30:15.642Z,89.66
2022-10-18T06:32:51.596Z,89.49
2022-10-18T06:35:27.595Z,89.10
2022-10-18T06:38:03.376Z,88.79
2022-10-18T06:40:39.259Z,88.43
2022-10-18T06:43:21.185Z,87.93
2022-10-18T06:45:58.288Z,87.27
2022-10-18T06:48:35.119Z,86.85
2022-10-18T06:51:13.078Z,85.44
2022-10-18T06:54:05.906Z,82.10
2022-10-18T06:56:45.087Z,77.60
2022-10-18T06:59:21.388Z,73.73
2022-10-18T07:01:57.207Z,68.92
2022-10-18T07:04:35.213Z,66.16
2022-10-18T07:07:10.880Z,63.11
2022-10-18T07:09:48.043Z,58.05
2022-10-18T07:12:23.977Z,56.67
2022-10-18T07:14:59.750Z,54.27
2022-10-18T07:17:35.584Z,52.91
2022-10-18T07:20:13.343Z,51.22
2022-10-18T07:22:49.198Z,50.99
2022-10-18T07:25:28.471Z,51.82
2022-10-18T07:28:06.686Z,50.13
2022-10-18T07:30:42.721Z,48.67
2022-10-18T07:33:20.046Z,49.47
2022-10-18T07:35:55.943Z,47.50
2022-10-18T07:38:31.883Z,46.64
2022-10-18T07:41:11.352Z,48.12
2022-10-18T07:43:51.899Z,47.14
2022-10-18T07:46:27.885Z,46.18
2022-10-18T07:49:04.275Z,45.00
2022-10-18T07:51:40.099Z,44.66
2022-10-18T07:54:15.887Z,45.22
2022-10-18T07:56:51.636Z,44.79
2022-10-18T07:59:28.021Z,45.21
2022-10-18T08:02:03.862Z,44.75
2022-10-18T08:04:39.558Z,44.75
2022-10-18T08:07:15.492Z,45.28
2022-10-18T08:09:51.318Z,45.32
2022-10-18T08:12:27.374Z,45.06
2022-10-18T08:15:03.799Z,44.95
2022-10-18T08:17:40.007Z,46.05
2022-10-18T08:20:29.754Z,45.77
2022-10-18T08:23:08.302Z,46.55
2022-10-18T08:25:43.986Z,46.94
2022-10-18T08:28:20.004Z,47.03
2022-10-18T08:30:55.956Z,47.63
2022-10-18T08:33:31.812Z,47.45
2022-10-18T08:36:12.974Z,48.08
2022-10-18T08:38:49.424Z,48.55
2022-10-18T08:41:56.397Z,48.90
2022-10-18T08:44:34.840Z,49.45
2022-10-18T08:47:18.353Z,48.73
2022-10-18T08:50:00.823Z,48.60
2022-10-18T08:52:54.732Z,48.73
2022-10-18T08:55:39.000Z,48.91
2022-10-18T08:58:22.854Z,49.33
2022-10-18T09:01:21.274Z,48.97
2022-10-18T09:04:39.303Z,48.94
2022-10-18T09:07:57.732Z,48.64
2022-10-18T09:10:52.921Z,49.21
2022-10-18T09:14:00.733Z,49.37
2022-10-18T09:16:52.663Z,49.20
2022-10-18T09:20:01.417Z,49.15
2022-10-18T09:22:54.886Z,49.15
2022-10-18T09:25:44.340Z,49.42
2022-10-18T09:28:48.285Z,48.87
2022-10-18T09:31:41.904Z,49.43
2022-10-18T09:34:32.552Z,49.42
2022-10-18T09:37:15.922Z,49.21
2022-10-18T09:40:01.091Z,49.52
2022-10-18T09:42:43.960Z,49.37
2022-10-18T09:45:32.144Z,49.62
2022-10-18T09:48:19.232Z,49.57
2022-10-18T09:51:03.603Z,49.69
2022-10-18T09:53:53.062Z,49.89
2022-10-18T09:56:40.922Z,50.06
2022-10-18T09:59:39.568Z,49.80
2022-10-18T10:02:22.306Z,50.00
2022-10-18T10:04:58.432Z,49.82
2022-10-18T10:07:44.624Z,50.21
2022-10-18T10:10:26.883Z,50.24
2022-10-18T10:13:22.462Z,50.34
2022-10-18T10:16:04.412Z,50.32
2022-10-18T10:18:43.754Z,50.27
2022-10-18T10:21:21.857Z,49.91
2022-10-18T10:24:00.658Z,49.82
2022-10-18T10:26:39.000Z,50.14
2022-10-18T10:30:00.391Z,50.35
2022-10-18T10:32:51.648Z,50.22
2022-10-18T10:35:53.940Z,50.23
2022-10-18T10:38:32.571Z,50.17
2022-10-18T10:41:21.329Z,49.40
2022-10-18T10:43:57.854Z,48.94
2022-10-18T10:46:39.526Z,49.49
2022-10-18T10:49:39.822Z,49.15
2022-10-18T10:52:37.322Z,49.15
2022-10-18T10:55:35.232Z,49.26
2022-10-18T10:58:20.752Z,48.75
2022-10-18T11:00:58.791Z,48.70
2022-10-18T11:03:36.131Z,48.61
2022-10-18T11:06:51.294Z,48.96
2022-10-18T11:09:51.380Z,48.76
2022-10-18T11:12:39.313Z,48.69
2022-10-18T11:15:32.732Z,48.09
2022-10-18T11:18:23.010Z,47.53
2022-10-18T11:21:07.971Z,48.29
2022-10-18T11:23:46.500Z,46.88
2022-10-18T11:26:47.890Z,47.35
2022-10-18T11:29:49.350Z,46.92
2022-10-18T11:32:35.839Z,46.90
2022-10-18T11:35:38.876Z,46.81
2022-10-18T11:38:37.120Z,47.08
2022-10-18T11:41:42.185Z,47.48
2022-10-18T11:44:33.585Z,47.18
2022-10-18T11:47:21.744Z,46.73
2022-10-18T11:50:17.499Z,47.07
2022-10-18T11:53:11.105Z,46.56
2022-10-18T11:56:09.212Z,45.66
2022-10-18T11:59:11.198Z,46.39
2022-10-18T12:02:10.421Z,46.33
2022-10-18T12:05:18.884Z,46.11
2022-10-18T12:08:03.390Z,45.86
2022-10-18T12:10:45.970Z,46.21
2022-10-18T12:13:48.531Z,45.86
2022-10-18T12:16:49.900Z,44.93
2022-10-18T12:19:29.563Z,45.22
2022-10-18T12:22:19.467Z,44.93
2022-10-18T12:25:02.735Z,44.61
2022-10-18T12:27:51.498Z,44.47
2022-10-18T12:30:42.364Z,43.95
2022-10-18T12:33:28.556Z,43.84
2022-10-18T12:36:34.227Z,44.31
2022-10-18T12:39:27.281Z,44.44
2022-10-18T12:42:27.477Z,43.93
2022-10-18T12:45:27.863Z,43.98
2022-10-18T12:48:08.958Z,43.83
2022-10-18T12:50:59.000Z,43.84
2022-10-18T12:53:36.693Z,43.94
2022-10-18T12:56:47.718Z,43.29
2022-10-18T12:59:56.040Z,43.67
2022-10-18T13:02:34.623Z,43.91
2022-10-18T13:06:06.410Z,43.91
2022-10-18T13:08:48.324Z,43.24
2022-10-18T13:11:36.946Z,43.26
2022-10-18T13:15:20.823Z,44.44
2022-10-18T13:18:08.047Z,44.41
2022-10-18T13:20:56.597Z,44.50
2022-10-18T13:23:56.293Z,44.39
2022-10-18T13:26:59.165Z,44.02
2022-10-18T13:30:28.644Z,43.85
2022-10-18T13:33:30.385Z,43.88
2022-10-18T13:36:23.063Z,44.27
2022-10-18T13:39:19.743Z,44.27
2022-10-18T13:42:36.018Z,44.23
2022-10-18T13:45:57.111Z,44.20
2022-10-18T13:48:54.836Z,44.41
2022-10-18T13:52:02.678Z,44.16
2022-10-18T13:55:16.743Z,44.27
2022-10-18T13:58:08.004Z,44.38
2022-10-18T14:01:11.470Z,44.04
2022-10-18T14:04:43.634Z,44.07
2022-10-18T14:07:23.324Z,44.17
2022-10-18T14:10:04.067Z,44.55
2022-10-18T14:12:48.906Z,44.41
2022-10-18T14:15:33.885Z,44.47
2022-10-18T14:18:22.317Z,44.85
2022-10-18T14:21:13.909Z,44.86
2022-10-18T14:23:51.730Z,45.14
2022-10-18T14:26:29.398Z,45.35
2022-10-18T14:29:21.523Z,45.34
2022-10-18T14:32:00.250Z,45.33
2022-10-18T14:34:37.098Z,45.38
2022-10-18T14:37:27.196Z,45.63
2022-10-18T14:40:03.685Z,45.94
2022-10-18T14:42:49.262Z,46.26
2022-10-18T14:45:27.535Z,46.42
2022-10-18T14:48:22.067Z,46.49
2022-10-18T14:51:09.023Z,46.57
2022-10-18T14:53:45.382Z,46.83
2022-10-18T14:56:31.160Z,47.11
2022-10-18T14:59:17.280Z,47.41
2022-10-18T15:02:05.909Z,47.62
2022-10-18T15:04:44.737Z,48.15
2022-10-18T15:07:22.553Z,48.77
2022-10-18T15:10:01.707Z,49.13
2022-10-18T15:12:57.778Z,49.33
2022-10-18T15:15:38.815Z,49.54
2022-10-18T15:18:26.512Z,49.91
2022-10-18T15:21:25.798Z,50.22
2022-10-18T15:24:32.787Z,50.73
2022-10-18T15:27:26.458Z,50.90
2022-10-18T15:30:11.106Z,51.30
2022-10-18T15:32:56.475Z,51.66
2022-10-18T15:35:36.854Z,52.00
2022-10-18T15:38:32.125Z,52.34
2022-10-18T15:41:44.637Z,52.59
2022-10-18T15:44:32.301Z,52.91
2022-10-18T15:47:24.971Z,53.30
2022-10-18T15:50:02.428Z,53.89
2022-10-18T15:52:44.332Z,54.18
2022-10-18T15:55:53.654Z,54.62
2022-10-18T15:58:39.151Z,54.93
2022-10-18T16:01:27.300Z,55.60
2022-10-18T16:04:08.938Z,55.98
2022-10-18T16:06:44.989Z,56.51
2022-10-18T16:09:24.253Z,56.95
2022-10-18T16:12:00.544Z,57.40
2022-10-18T16:14:37.351Z,57.59
2022-10-18T16:17:17.776Z,57.88
2022-10-18T16:19:53.661Z,58.17
2022-10-18T16:22:32.223Z,58.63
2022-10-18T16:25:13.305Z,58.95
2022-10-18T16:27:49.309Z,59.27
2022-10-18T16:30:29.498Z,59.53
2022-10-18T16:33:07.542Z,59.82
2022-10-18T16:35:43.448Z,60.11
2022-10-18T16:38:35.475Z,60.43
2022-10-18T16:41:13.386Z,60.67
2022-10-18T16:43:51.411Z,61.07
2022-10-18T16:46:31.402Z,61.39
2022-10-18T16:49:08.481Z,61.71
2022-10-18T16:51:44.338Z,61.94
2022-10-18T16:54:20.392Z,62.44
2022-10-18T16:56:56.294Z,63.15
2022-10-18T16:59:34.326Z,63.56
2022-10-18T17:02:12.121Z,63.74
2022-10-18T17:04:47.949Z,63.92
2022-10-18T17:07:27.650Z,64.01
2022-10-18T17:10:03.610Z,64.09
2022-10-18T17:12:39.514Z,64.47
2022-10-18T17:15:16.367Z,64.48
2022-10-18T17:17:52.603Z,64.55
2022-10-18T17:20:30.149Z,64.75
2022-10-18T17:23:06.052Z,65.05
2022-10-18T17:25:57.540Z,65.27
2022-10-18T17:28:41.229Z,65.37
2022-10-18T17:31:18.976Z,65.52
2022-10-18T17:33:55.504Z,65.56
2022-10-18T17:36:32.226Z,65.68
2022-10-18T17:39:10.432Z,65.81
2022-10-18T17:41:46.529Z,65.85
2022-10-18T17:44:22.698Z,65.88
2022-10-18T17:47:00.137Z,65.68
2022-10-18T17:49:36.218Z,65.53
2022-10-18T17:52:12.304Z,65.10
2022-10-18T17:54:48.196Z,64.65
2022-10-18T17:57:24.186Z,64.99
2022-10-18T17:59:59.987Z,64.75
2022-10-18T18:02:38.359Z,64.51
2022-10-18T18:05:17.074Z,64.47
2022-10-18T18:07:52.810Z,64.43
2022-10-18T18:10:29.712Z,63.99
2022-10-18T18:13:05.889Z,63.60
2022-10-18T18:15:41.799Z,63.48
2022-10-18T18:18:17.776Z,63.17
2022-10-18T18:20:57.103Z,62.98
2022-10-18T18:23:33.464Z,62.93
2022-10-18T18:26:09.537Z,62.86
2022-10-18T18:28:45.935Z,62.87
2022-10-18T18:31:25.351Z,62.47
2022-10-18T18:34:03.241Z,62.34
2022-10-18T18:36:39.707Z,62.24
2022-10-18T18:39:24.550Z,62.16
2022-10-18T18:42:01.783Z,62.19
2022-10-18T18:44:38.334Z,62.16
2022-10-18T18:47:14.824Z,62.06
2022-10-18T18:49:51.739Z,61.96
2022-10-18T18:52:27.727Z,61.95
2022-10-18T18:55:03.786Z,61.89
2022-10-18T18:57:39.725Z,61.86
2022-10-18T19:00:19.024Z,61.93
2022-10-18T19:02:55.054Z,62.01
2022-10-18T19:05:32.219Z,61.92
2022-10-18T19:08:09.263Z,61.96
2022-10-18T19:10:49.271Z,61.91
2022-10-18T19:13:25.124Z,62.02
2022-10-18T19:16:27.385Z,62.02
2022-10-18T19:19:07.841Z,62.02
2022-10-18T19:21:48.190Z,62.00
2022-10-18T19:24:26.593Z,62.11
2022-10-18T19:27:05.895Z,62.32
2022-10-18T19:29:43.929Z,62.43
2022-10-18T19:32:20.479Z,62.13
2022-10-18T19:34:56.705Z,62.13
2022-10-18T19:37:32.962Z,62.17
2022-10-18T19:40:11.968Z,62.21
2022-10-18T19:42:48.017Z,62.23
2022-10-18T19:45:23.985Z,62.36
2022-10-18T19:47:59.758Z,62.44
2022-10-18T19:50:38.117Z,62.53
2022-10-18T19:53:14.199Z,62.58
2022-10-18T19:55:50.591Z,62.63
2022-10-18T19:58:26.654Z,62.62
2022-10-18T20:01:03.115Z,62.70
2022-10-18T20:03:39.339Z,62.81
2022-10-18T20:06:16.594Z,62.93
2022-10-18T20:08:53.637Z,62.95
2022-10-18T20:11:31.578Z,63.43
2022-10-18T20:14:09.626Z,64.23
2022-10-18T20:16:45.667Z,63.67
2022-10-18T20:19:22.023Z,63.26
2022-10-18T20:21:58.930Z,63.28
2022-10-18T20:24:34.893Z,63.37
2022-10-18T20:27:10.975Z,63.46
2022-10-18T20:29:47.959Z,63.53
2022-10-18T20:32:23.875Z,63.90
2022-10-18T20:34:59.709Z,65.31
2022-10-18T20:37:35.644Z,66.28
2022-10-18T20:40:15.632Z,67.00
2022-10-18T20:42:56.232Z,67.72
2022-10-18T20:45:33.940Z,68.14
2022-10-18T20:48:10.262Z,68.54
2022-10-18T20:50:47.698Z,69.03
2022-10-18T20:53:24.474Z,69.50
2022-10-18T20:56:10.532Z,70.33
2022-10-18T20:58:48.507Z,70.33
2022-10-18T21:01:28.463Z,70.95
2022-10-18T21:04:08.546Z,71.54
2022-10-18T21:06:46.265Z,72.29
2022-10-18T21:09:23.625Z,73.21
2022-10-18T21:11:59.432Z,73.22
2022-10-18T21:14:35.275Z,73.19
2022-10-18T21:17:11.167Z,74.19
2022-10-18T21:19:46.918Z,74.44
2022-10-18T21:22:22.730Z,75.29
2022-10-18T21:24:58.448Z,75.94
2022-10-18T21:27:34.220Z,75.94
2022-10-18T21:32:53.697Z,76.41
2022-10-18T21:35:29.876Z,76.66
2022-10-18T21:38:05.928Z,77.69
2022-10-18T21:40:44.682Z,78.24
2022-10-18T21:43:20.473Z,78.84
2022-10-18T21:46:02.966Z,79.39
2022-10-18T21:48:39.093Z,79.51
2022-10-18T21:51:17.762Z,79.44
2022-10-18T21:53:56.172Z,79.87
2022-10-18T21:56:34.867Z,80.03
2022-10-18T21:59:12.334Z,79.71
2022-10-18T22:01:48.218Z,80.48
2022-10-18T22:04:26.719Z,80.78
2022-10-18T22:07:02.689Z,80.83
2022-10-18T22:09:38.582Z,80.54
2022-10-18T22:12:14.404Z,79.99
2022-10-18T22:14:50.317Z,80.44
2022-10-18T22:17:26.308Z,80.77
2022-10-18T22:20:01.953Z,80.76
2022-10-18T22:22:37.702Z,81.23
2022-10-18T22:25:14.472Z,81.53
2022-10-18T22:27:50.255Z,81.85
2022-10-18T22:30:26.130Z,81.94
2022-10-18T22:33:02.385Z,82.01
2022-10-18T22:35:38.639Z,82.33
2022-10-18T22:38:14.346Z,82.59
2022-10-18T22:40:50.130Z,82.80
2022-10-18T22:43:25.817Z,82.91
2022-10-18T22:46:05.045Z,83.11
2022-10-18T22:48:41.153Z,83.25
2022-10-18T22:51:17.390Z,83.40
2022-10-18T22:53:53.488Z,83.47
2022-10-18T22:56:29.463Z,83.54
2022-10-18T22:59:05.299Z,83.58
2022-10-18T23:01:42.071Z,83.56
2022-10-18T23:04:17.830Z,83.57
2022-10-18T23:06:53.493Z,83.70
2022-10-18T23:09:29.288Z,83.93
2022-10-18T23:12:05.046Z,84.07
2022-10-18T23:14:40.646Z,84.15
2022-10-18T23:17:16.359Z,84.17
2022-10-18T23:19:52.009Z,84.08
2022-10-18T23:22:27.655Z,84.12
2022-10-18T23:25:03.310Z,84.15
2022-10-18T23:27:38.984Z,84.10
2022-10-18T23:30:16.709Z,84.05
2022-10-18T23:32:52.638Z,84.05
2022-10-18T23:35:28.875Z,84.06
2022-10-18T23:38:04.647Z,84.11
2022-10-18T23:40:40.395Z,84.15
2022-10-18T23:43:16.054Z,84.24
2022-10-18T23:45:51.734Z,84.27
2022-10-18T23:48:27.899Z,84.36
2022-10-18T23:51:04.670Z,84.38
2022-10-18T23:53:41.205Z,84.43
2022-10-18T23:56:18.946Z,84.50
2022-10-18T23:58:54.700Z,84.48
